Time;durP1;ratioP1;P1;durP2;ratioP2;P2;SDS_P1;SDS_P2;PMS_P1;PMS_P2;Temp;Humidity;BMP_temperature;BMP_pressure;BME280_temperature;BME280_humidity;BME280_pressure;Samples;Min_cycle;Max_cycle;Signal;HPM_P1;HPM_P2
2023/04/07 00:01:16;;;;;;;11.50;9.20;;;;;;;1.25;83.27;99888.09;219266;1257;140479;-65
2023/04/07 00:06:21;;;;;;;8.60;6.70;;;;;;;1.24;83.13;99887.46;218903;1257;140153;-65
2023/04/07 00:11:25;;;;;;;18.50;9.00;;;;;;;1.22;83.34;99882.06;219839;1257;139379;-64
2023/04/07 00:16:29;;;;;;;12.30;8.80;;;;;;;1.22;83.44;99876.94;219664;1257;140058;-64
2023/04/07 00:21:34;;;;;;;8.80;7.80;;;;;;;1.24;83.32;99871.34;219680;1257;140637;-64
2023/04/07 00:26:38;;;;;;;8.90;7.90;;;;;;;1.25;83.12;99868.09;220514;1257;139650;-67
2023/04/07 00:31:44;;;;;;;8.80;7.80;;;;;;;1.26;83.51;99866.05;220445;1256;140125;-66
2023/04/07 00:36:51;;;;;;;13.90;11.20;;;;;;;1.30;83.62;99869.48;220363;1255;140205;-68
2023/04/07 00:41:56;;;;;;;;;;;;;;;1.32;83.51;99867.83;219974;1257;139994;-66
2023/04/07 00:47:03;;;;;;;13.90;8.50;;;;;;;1.31;83.57;99859.46;218462;1257;127375;-64
2023/04/07 00:52:12;;;;;;;14.10;10.20;;;;;;;1.31;83.42;99855.46;219084;1257;140623;-64
2023/04/07 00:57:17;;;;;;;9.00;8.10;;;;;;;1.34;83.53;99850.10;219275;1257;139835;-62
2023/04/07 01:02:35;;;;;;;12.50;9.30;;;;;;;1.34;83.52;99848.48;217903;1259;139382;-61
2023/04/07 01:08:04;;;;;;;11.60;7.90;;;;;;;1.35;83.66;99839.75;218655;1257;162762;-61
2023/04/07 01:13:17;;;;;;;11.40;9.80;;;;;;;1.34;83.83;99835.31;218505;1259;139772;-61
2023/04/07 01:18:30;;;;;;;9.30;7.60;;;;;;;1.33;84.15;99831.10;218083;1257;141355;-62
2023/04/07 01:24:12;;;;;;;13.20;8.80;;;;;;;1.30;83.93;99825.59;218547;1258;139104;-61
2023/04/07 01:29:46;;;;;;;9.10;6.60;;;;;;;1.30;84.03;99825.30;218302;1257;139720;-63
2023/04/07 01:34:51;;;;;;;8.30;7.10;;;;;;;1.32;84.11;99825.80;217860;1257;139573;-63
2023/04/07 01:39:56;;;;;;;12.90;9.20;;;;;;;1.33;84.01;99822.40;217718;1257;139492;-63
2023/04/07 01:45:03;;;;;;;12.00;10.60;;;;;;;1.33;84.60;99822.29;217894;1259;140129;-64
2023/04/07 01:50:09;;;;;;;;;;;;;;;1.31;84.53;99824.43;218510;1256;139817;-64
2023/04/07 01:55:15;;;;;;;10.40;8.60;;;;;;;1.29;84.17;99821.69;219782;1257;126113;-65
2023/04/07 02:00:20;;;;;;;10.90;9.20;;;;;;;1.31;84.85;99815.45;218554;1258;139582;-63
2023/04/07 02:05:30;;;;;;;12.10;9.40;;;;;;;1.33;84.58;99811.95;220313;1257;139555;-66
2023/04/07 02:10:38;;;;;;;12.40;9.30;;;;;;;1.38;84.55;99808.81;219838;1257;141505;-68
2023/04/07 02:15:44;;;;;;;9.90;8.80;;;;;;;1.43;84.35;99806.19;219893;1257;140269;-66
2023/04/07 02:20:51;;;;;;;10.90;9.20;;;;;;;1.48;84.57;99803.27;218741;1257;161806;-64
2023/04/07 02:25:57;;;;;;;13.50;10.20;;;;;;;1.52;84.69;99800.59;219755;1259;139612;-68
2023/04/07 02:31:01;;;;;;;11.90;9.50;;;;;;;1.53;84.41;99800.56;220410;1257;140376;-67
2023/04/07 02:36:05;;;;;;;12.90;10.20;;;;;;;1.58;84.98;99797.57;219071;1257;139424;-67
2023/04/07 02:41:08;;;;;;;12.60;10.30;;;;;;;1.61;84.55;99791.99;218698;1257;139862;-67
2023/04/07 02:46:13;;;;;;;13.80;11.80;;;;;;;1.63;84.64;99789.27;218253;1259;140377;-63
2023/04/07 02:51:19;;;;;;;16.30;12.40;;;;;;;1.66;84.72;99788.77;219146;1257;140394;-65
2023/04/07 02:56:24;;;;;;;13.70;10.70;;;;;;;1.70;84.57;99789.73;217896;1256;139567;-63
2023/04/07 03:01:29;;;;;;;13.80;10.10;;;;;;;1.73;84.85;99788.73;218033;1260;230947;-64
2023/04/07 03:06:34;;;;;;;17.00;12.30;;;;;;;1.75;85.03;99791.64;218249;1257;139964;-64
2023/04/07 03:11:38;;;;;;;11.10;9.20;;;;;;;1.78;84.93;99788.98;217616;1260;139881;-65
2023/04/07 03:16:43;;;;;;;11.30;9.10;;;;;;;1.80;85.02;99788.09;218366;1259;139550;-64
2023/04/07 03:21:47;;;;;;;12.60;8.90;;;;;;;1.79;85.13;99794.64;217983;1258;139964;-65
2023/04/07 03:26:51;;;;;;;11.50;9.40;;;;;;;1.78;85.16;99792.31;217679;1257;140750;-65
2023/04/07 03:31:56;;;;;;;13.40;9.50;;;;;;;1.80;85.44;99791.28;217956;1257;142146;-64
2023/04/07 03:37:01;;;;;;;10.30;8.80;;;;;;;1.82;85.59;99788.38;218528;1257;140418;-64
2023/04/07 03:42:05;;;;;;;11.30;9.20;;;;;;;1.84;85.60;99786.33;218929;1257;141460;-63
2023/04/07 03:47:11;;;;;;;12.50;9.90;;;;;;;1.88;85.38;99783.40;217669;1257;140548;-65
2023/04/07 03:52:15;;;;;;;11.10;9.00;;;;;;;1.90;85.41;99773.89;218688;1260;140037;-66
2023/04/07 03:57:21;;;;;;;11.10;8.30;;;;;;;1.92;85.36;99776.30;219023;1257;139537;-62
2023/04/07 04:02:25;;;;;;;10.70;9.30;;;;;;;1.94;85.59;99780.66;220375;1257;139706;-63
2023/04/07 04:07:31;;;;;;;8.70;7.80;;;;;;;1.96;85.22;99776.34;220339;1257;139792;-66
2023/04/07 04:12:35;;;;;;;12.10;8.70;;;;;;;1.99;85.64;99778.25;220338;1260;140117;-66
2023/04/07 04:17:40;;;;;;;12.30;9.40;;;;;;;2.03;85.57;99779.73;220359;1259;139914;-67
2023/04/07 04:22:44;;;;;;;10.30;8.50;;;;;;;2.08;85.36;99779.56;220458;1260;139762;-66
2023/04/07 04:27:48;;;;;;;9.50;8.30;;;;;;;2.14;85.49;99776.36;220519;1258;140292;-67
2023/04/07 04:32:54;;;;;;;14.20;8.50;;;;;;;2.20;85.38;99777.05;219925;1259;140407;-67
2023/04/07 04:37:58;;;;;;;9.70;7.20;;;;;;;2.24;85.37;99775.19;217800;1256;141355;-66
2023/04/07 04:43:05;;;;;;;10.20;8.20;;;;;;;2.26;85.44;99775.13;217681;1260;139881;-66
2023/04/07 04:48:11;;;;;;;9.50;7.20;;;;;;;2.28;85.70;99777.84;218035;1257;141075;-65
2023/04/07 04:53:16;;;;;;;10.90;8.60;;;;;;;2.30;85.55;99780.02;218217;1257;140488;-64
2023/04/07 04:58:20;;;;;;;11.90;8.20;;;;;;;2.32;85.83;99778.10;218854;1259;139656;-63
2023/04/07 05:03:28;;;;;;;11.60;8.80;;;;;;;2.35;85.81;99778.06;218572;1260;141486;-64
2023/04/07 05:08:34;;;;;;;13.10;10.10;;;;;;;2.38;86.02;99778.80;217706;1260;139757;-64
2023/04/07 05:13:39;;;;;;;14.40;10.30;;;;;;;2.41;86.13;99777.20;217565;1258;140883;-64
2023/04/07 05:18:44;;;;;;;12.00;9.40;;;;;;;2.44;85.99;99778.71;218508;1257;140021;-65
2023/04/07 05:23:49;;;;;;;13.80;9.70;;;;;;;2.44;85.99;99782.36;218934;1260;139522;-63
2023/04/07 05:28:54;;;;;;;12.00;7.70;;;;;;;2.48;86.11;99788.27;218266;1260;139990;-65
2023/04/07 05:33:59;;;;;;;15.40;9.40;;;;;;;2.52;86.22;99789.38;218961;1260;139834;-67
2023/04/07 05:39:04;;;;;;;10.90;8.40;;;;;;;2.58;86.29;99791.89;217602;1260;139795;-67
2023/04/07 05:44:10;;;;;;;10.80;8.40;;;;;;;2.61;86.08;99788.17;217634;1258;140264;-68
2023/04/07 05:49:15;;;;;;;11.90;8.40;;;;;;;2.64;86.36;99790.08;219658;1257;139824;-69
2023/04/07 05:54:25;;;;;;;12.60;8.90;;;;;;;2.70;86.48;99793.89;217905;1257;140788;-66
2023/04/07 05:59:30;;;;;;;11.60;8.20;;;;;;;2.76;86.27;99787.56;219178;1256;139311;-65
2023/04/07 06:04:35;;;;;;;8.50;7.40;;;;;;;2.82;86.31;99784.64;219354;1257;140119;-63
2023/04/07 06:09:41;;;;;;;12.80;9.20;;;;;;;2.86;86.40;99785.98;220409;1257;140201;-64
2023/04/07 06:14:52;;;;;;;7.90;6.00;;;;;;;2.90;86.15;99784.38;220164;1257;139918;-66
2023/04/07 06:19:58;;;;;;;12.50;9.20;;;;;;;2.96;86.39;99789.92;217712;1256;140134;-64
2023/04/07 06:25:04;;;;;;;11.70;8.10;;;;;;;3.03;86.15;99784.34;219038;1257;141192;-65
2023/04/07 06:30:10;;;;;;;10.70;8.10;;;;;;;3.12;86.33;99787.17;219642;1257;140112;-64
2023/04/07 06:35:15;;;;;;;8.90;6.50;;;;;;;3.23;86.49;99779.65;219300;1258;140700;-64
2023/04/07 06:40:19;;;;;;;10.10;6.90;;;;;;;3.32;86.38;99781.34;219331;1256;139472;-67
2023/04/07 06:45:25;;;;;;;9.90;6.90;;;;;;;3.38;86.33;99780.58;218965;1257;139980;-62
2023/04/07 06:50:30;;;;;;;9.90;7.80;;;;;;;3.41;86.38;99778.63;218392;1257;140200;-63
2023/04/07 06:55:35;;;;;;;7.30;6.50;;;;;;;3.48;86.47;99776.71;218522;1257;140172;-65
2023/04/07 07:00:41;;;;;;;10.00;7.40;;;;;;;3.58;86.40;99778.52;217964;1257;139270;-65
2023/04/07 07:05:47;;;;;;;10.70;8.20;;;;;;;3.63;86.43;99779.95;218332;1257;140521;-67
2023/04/07 07:10:54;;;;;;;9.90;8.10;;;;;;;3.68;86.44;99779.48;218779;1257;140293;-66
2023/04/07 07:16:00;;;;;;;9.10;6.90;;;;;;;3.74;86.66;99780.89;218457;1257;139998;-66
2023/04/07 07:21:07;;;;;;;12.50;8.20;;;;;;;3.82;86.57;99782.88;218337;1257;139300;-67
2023/04/07 07:26:12;;;;;;;13.50;10.10;;;;;;;3.89;86.46;99783.98;218143;1257;139616;-65
2023/04/07 07:31:19;;;;;;;11.30;8.70;;;;;;;3.97;86.52;99783.45;218046;1260;140505;-65
2023/04/07 07:36:23;;;;;;;16.00;10.10;;;;;;;4.04;86.76;99792.09;217853;1258;139565;-66
2023/04/07 07:41:31;;;;;;;13.30;10.20;;;;;;;4.13;86.78;99787.59;218729;1257;140294;-67
2023/04/07 07:46:36;;;;;;;16.40;10.00;;;;;;;4.20;86.79;99789.07;219307;1257;140290;-67
2023/04/07 07:51:40;;;;;;;15.10;10.60;;;;;;;4.26;86.61;99791.74;218314;1257;141088;-66
2023/04/07 07:56:43;;;;;;;17.00;10.90;;;;;;;4.34;86.69;99791.66;219369;1256;141230;-66
2023/04/07 08:01:47;;;;;;;13.60;10.30;;;;;;;4.43;86.84;99790.19;219821;1256;140139;-64
2023/04/07 08:06:52;;;;;;;14.00;9.50;;;;;;;4.48;86.66;99793.91;220531;1255;140348;-66
2023/04/07 08:11:56;;;;;;;16.30;10.90;;;;;;;4.55;86.67;99796.96;220796;1256;140375;-66
2023/04/07 08:17:00;;;;;;;16.10;12.30;;;;;;;4.64;86.56;99796.92;219465;1256;139651;-65
2023/04/07 08:22:05;;;;;;;16.50;11.10;;;;;;;4.76;86.59;99795.70;220228;1256;139756;-66
2023/04/07 08:27:08;;;;;;;15.10;10.50;;;;;;;4.86;86.55;99794.01;218621;1256;140204;-65
2023/04/07 08:32:12;;;;;;;14.20;10.20;;;;;;;4.98;86.27;99796.80;219737;1256;141636;-66
2023/04/07 08:37:16;;;;;;;16.00;10.20;;;;;;;5.00;86.25;99800.39;218304;1257;139489;-65
2023/04/07 08:42:24;;;;;;;18.50;11.40;;;;;;;4.96;86.36;99796.67;218818;1257;141082;-64
2023/04/07 08:47:31;;;;;;;16.30;9.50;;;;;;;4.98;86.71;99791.27;218752;1257;223455;-64
2023/04/07 08:52:52;;;;;;;13.90;10.50;;;;;;;4.96;86.29;99792.69;217919;1257;139413;-63
2023/04/07 08:57:57;;;;;;;17.20;11.90;;;;;;;4.96;86.50;99789.15;217995;1257;140809;-63
2023/04/07 09:03:05;;;;;;;17.50;11.40;;;;;;;5.01;86.56;99782.68;217858;1256;139868;-63
2023/04/07 09:08:12;;;;;;;15.80;10.70;;;;;;;5.09;86.76;99786.77;217677;1257;139684;-64
2023/04/07 09:13:16;;;;;;;19.50;12.80;;;;;;;5.15;86.75;99786.23;218021;1257;140105;-64
2023/04/07 09:18:20;;;;;;;15.00;11.00;;;;;;;5.17;86.98;99779.54;218628;1257;141116;-66
2023/04/07 09:23:36;;;;;;;15.70;10.90;;;;;;;5.17;86.72;99778.03;218050;1257;140520;-65
2023/04/07 09:28:41;;;;;;;17.40;13.20;;;;;;;5.13;86.57;99775.33;218634;1257;140263;-66
2023/04/07 09:33:46;;;;;;;13.60;11.10;;;;;;;5.11;86.77;99774.43;218139;1257;139818;-66
2023/04/07 09:38:52;;;;;;;16.70;11.40;;;;;;;5.12;87.06;99767.96;218757;1256;140673;-66
2023/04/07 09:43:57;;;;;;;14.90;10.90;;;;;;;5.15;86.52;99766.23;218478;1257;139903;-65
2023/04/07 09:49:19;;;;;;;16.40;11.70;;;;;;;5.20;87.04;99758.60;217842;1257;140068;-68
2023/04/07 09:54:51;;;;;;;15.20;11.00;;;;;;;5.21;86.87;99771.68;217933;1259;139690;-69
2023/04/07 09:59:56;;;;;;;16.70;11.90;;;;;;;5.21;87.11;99766.03;218952;1256;140163;-69
2023/04/07 10:05:01;;;;;;;13.50;10.60;;;;;;;5.23;86.79;99772.61;218182;1260;140060;-69
2023/04/07 10:10:07;;;;;;;14.00;10.70;;;;;;;5.28;86.90;99767.39;219753;1256;141055;-69
2023/04/07 10:15:14;;;;;;;17.10;12.90;;;;;;;5.32;86.82;99767.89;219982;1256;140626;-68
2023/04/07 10:20:22;;;;;;;12.80;10.30;;;;;;;5.39;86.75;99760.27;218544;1256;141538;-66
2023/04/07 10:25:26;;;;;;;15.30;10.70;;;;;;;5.48;86.85;99761.27;218195;1256;140053;-65
2023/04/07 10:30:32;;;;;;;15.40;11.40;;;;;;;5.48;86.57;99762.01;217552;1256;139827;-66
2023/04/07 10:36:06;;;;;;;18.30;13.10;;;;;;;5.43;86.53;99768.45;218537;1256;139730;-67
2023/04/07 10:41:40;;;;;;;19.60;12.50;;;;;;;5.46;86.66;99756.87;218951;1256;140730;-67
2023/04/07 10:46:47;;;;;;;18.40;12.10;;;;;;;5.54;87.08;99749.09;218991;1256;139197;-65
2023/04/07 10:52:12;;;;;;;23.30;14.30;;;;;;;5.63;87.04;99746.52;219044;1256;140346;-66
2023/04/07 10:57:17;;;;;;;20.50;13.90;;;;;;;5.66;87.06;99754.45;218448;1256;141044;-68
2023/04/07 11:02:23;;;;;;;23.50;16.30;;;;;;;5.65;86.97;99754.73;217337;1256;681790;-67
2023/04/07 11:07:50;;;;;;;23.40;15.30;;;;;;;5.66;87.03;99764.95;218303;1255;139928;-65
2023/04/07 11:13:06;;;;;;;23.40;14.70;;;;;;;5.71;87.04;99763.98;217850;1256;139912;-66
2023/04/07 11:18:17;;;;;;;24.50;17.30;;;;;;;5.81;87.08;99761.90;218389;1256;140497;-67
2023/04/07 11:23:24;;;;;;;26.70;18.70;;;;;;;5.89;87.55;99758.58;218959;1256;139753;-69
2023/04/07 11:28:30;;;;;;;35.60;24.50;;;;;;;5.94;87.34;99757.20;218543;1256;140509;-66
2023/04/07 11:33:37;;;;;;;34.80;24.10;;;;;;;5.98;87.33;99754.27;218886;1256;140003;-66
2023/04/07 11:38:45;;;;;;;32.70;20.20;;;;;;;6.04;87.57;99754.94;218039;1257;139602;-67
2023/04/07 11:44:04;;;;;;;25.80;20.10;;;;;;;6.10;87.76;99752.49;218846;1256;141414;-66
2023/04/07 11:49:12;;;;;;;28.40;20.50;;;;;;;6.18;87.68;99755.91;219226;1256;139758;-66
2023/04/07 11:54:16;;;;;;;28.40;18.50;;;;;;;6.25;87.65;99755.52;219552;1256;141384;-68
2023/04/07 11:59:24;;;;;;;36.10;20.00;;;;;;;6.30;87.37;99758.20;218285;1256;140988;-66
2023/04/07 12:04:30;;;;;;;34.40;23.10;;;;;;;6.39;87.62;99759.69;220469;1256;140608;-67
2023/04/07 12:09:35;;;;;;;28.80;19.70;;;;;;;6.48;87.57;99760.19;220410;1256;141286;-67
2023/04/07 12:14:39;;;;;;;27.30;20.20;;;;;;;6.57;87.13;99757.89;220343;1256;141371;-68
2023/04/07 12:19:43;;;;;;;29.70;20.20;;;;;;;6.68;87.66;99754.90;220321;1257;140484;-64
2023/04/07 12:24:47;;;;;;;23.20;17.70;;;;;;;6.78;87.23;99754.92;217996;1257;140703;-64
2023/04/07 12:29:51;;;;;;;29.70;22.30;;;;;;;6.83;87.14;99756.98;217505;1257;140107;-65
2023/04/07 12:34:55;;;;;;;36.70;27.20;;;;;;;6.87;87.43;99762.39;219684;1255;139662;-66
2023/04/07 12:39:59;;;;;;;32.90;23.50;;;;;;;6.91;87.40;99761.94;218998;1256;140081;-64
2023/04/07 12:45:05;;;;;;;32.50;21.30;;;;;;;6.92;87.20;99765.88;218470;1256;140872;-65
2023/04/07 12:50:12;;;;;;;35.30;23.90;;;;;;;6.91;87.18;99767.16;217937;1257;140764;-67
2023/04/07 12:55:15;;;;;;;37.80;23.40;;;;;;;6.92;87.38;99762.10;217596;1256;140842;-68
2023/04/07 13:00:19;;;;;;;34.20;22.30;;;;;;;6.92;87.70;99762.79;217338;1260;139679;-68
2023/04/07 13:05:23;;;;;;;32.50;22.50;;;;;;;6.97;87.63;99763.14;218741;1256;140591;-68
2023/04/07 13:10:27;;;;;;;38.60;22.50;;;;;;;7.01;87.53;99762.43;217481;1256;139754;-68
2023/04/07 13:15:31;;;;;;;35.60;20.50;;;;;;;7.05;87.26;99762.48;217555;1260;229021;-67
2023/04/07 13:20:36;;;;;;;32.80;21.40;;;;;;;7.09;87.80;99760.61;217417;1260;141203;-67
2023/04/07 13:25:41;;;;;;;31.50;20.90;;;;;;;7.14;87.82;99764.55;218533;1256;140274;-65
2023/04/07 13:30:45;;;;;;;31.20;18.80;;;;;;;7.21;87.88;99763.67;218803;1256;140955;-67
2023/04/07 13:35:49;;;;;;;27.20;18.40;;;;;;;7.28;87.98;99762.05;218262;1256;140101;-67
2023/04/07 13:40:52;;;;;;;29.70;22.00;;;;;;;7.34;87.80;99763.63;217551;1257;140582;-67
2023/04/07 13:45:56;;;;;;;24.60;19.20;;;;;;;7.42;88.07;99758.85;217543;1259;139869;-65
2023/04/07 13:50:59;;;;;;;25.90;18.20;;;;;;;7.51;88.20;99755.54;220299;1256;140299;-68
2023/04/07 13:56:07;;;;;;;31.30;21.40;;;;;;;7.57;87.99;99758.77;220346;1256;140651;-67
2023/04/07 14:01:11;;;;;;;;;;;;;;;7.63;87.87;99755.95;220287;1256;140263;-67
2023/04/07 14:06:16;;;;;;;32.30;20.40;;;;;;;7.68;87.99;99754.10;219522;1256;127932;-65
2023/04/07 14:11:21;;;;;;;28.00;21.20;;;;;;;7.76;88.05;99753.11;220425;1256;139803;-68
2023/04/07 14:16:25;;;;;;;30.40;21.10;;;;;;;7.84;87.85;99749.27;219262;1256;140121;-68
2023/04/07 14:21:32;;;;;;;34.60;25.10;;;;;;;7.90;87.92;99749.66;219284;1256;140486;-67
2023/04/07 14:26:37;;;;;;;31.10;23.10;;;;;;;7.98;88.03;99744.97;217549;1256;140759;-67
2023/04/07 14:31:41;;;;;;;32.70;22.70;;;;;;;8.05;87.83;99739.19;218361;1257;140010;-66
2023/04/07 14:36:57;;;;;;;35.20;22.80;;;;;;;8.10;88.02;99742.02;217916;1259;139957;-69
2023/04/07 14:42:03;;;;;;;37.80;24.10;;;;;;;8.16;87.82;99740.48;217422;1258;140639;-69
2023/04/07 14:47:09;;;;;;;30.70;20.90;;;;;;;8.19;87.98;99744.63;218482;1257;140668;-68
2023/04/07 14:52:14;;;;;;;32.00;23.20;;;;;;;8.20;88.10;99744.45;217908;1257;142027;-68
2023/04/07 14:57:18;;;;;;;36.30;23.30;;;;;;;8.21;87.99;99742.37;217563;1257;140608;-68
2023/04/07 15:02:22;;;;;;;30.40;22.20;;;;;;;8.19;88.08;99746.42;217859;1256;141453;-69
2023/04/07 15:07:27;;;;;;;31.40;22.00;;;;;;;8.13;87.80;99740.79;217993;1259;140334;-71
2023/04/07 15:12:32;;;;;;;31.90;22.60;;;;;;;8.07;87.95;99744.11;218606;1256;139806;-69
2023/04/07 15:17:36;;;;;;;68.80;27.00;;;;;;;8.06;88.15;99745.80;218307;1256;140931;-70
2023/04/07 15:22:48;;;;;;;32.40;23.70;;;;;;;8.03;88.14;99752.03;217825;1258;139766;-69
2023/04/07 15:27:52;;;;;;;37.90;23.50;;;;;;;8.02;88.04;99755.19;219650;1256;140288;-70
2023/04/07 15:33:01;;;;;;;34.40;26.10;;;;;;;8.06;88.30;99744.27;218209;1259;140685;-68
2023/04/07 15:38:06;;;;;;;31.50;23.10;;;;;;;8.19;88.64;99748.23;217625;1254;140195;-69
2023/04/07 15:43:12;;;;;;;35.80;23.80;;;;;;;8.26;88.31;99749.36;219992;1256;141765;-69
2023/04/07 15:48:16;;;;;;;34.90;23.90;;;;;;;8.35;88.77;99748.36;220543;1256;140627;-68
2023/04/07 15:53:21;;;;;;;33.30;24.20;;;;;;;8.47;88.55;99744.86;220465;1256;140895;-70
2023/04/07 15:58:25;;;;;;;35.10;24.50;;;;;;;8.60;88.70;99742.95;220364;1257;140419;-70
2023/04/07 16:03:30;;;;;;;34.40;26.10;;;;;;;8.73;88.64;99745.98;218585;1257;139800;-69
2023/04/07 16:08:35;;;;;;;33.90;24.30;;;;;;;8.84;88.60;99748.98;218813;1259;140617;-68
2023/04/07 16:13:40;;;;;;;35.80;20.50;;;;;;;8.91;88.63;99754.94;217449;1257;139710;-69
2023/04/07 16:18:43;;;;;;;23.70;16.50;;;;;;;8.93;88.84;99762.67;217440;1257;141366;-68
2023/04/07 16:23:47;;;;;;;18.50;12.60;;;;;;;8.92;88.89;99769.65;217463;1257;139845;-67
2023/04/07 16:28:52;;;;;;;15.80;10.50;;;;;;;8.91;88.99;99775.10;217359;1257;139814;-70
2023/04/07 16:33:56;;;;;;;10.90;7.80;;;;;;;8.88;89.09;99781.60;217425;1257;140746;-67
2023/04/07 16:39:02;;;;;;;13.50;8.60;;;;;;;8.83;88.91;99793.53;218661;1259;141752;-70
2023/04/07 16:44:06;;;;;;;9.00;7.20;;;;;;;8.76;88.94;99804.36;217355;1257;140648;-70
2023/04/07 16:49:10;;;;;;;10.90;8.00;;;;;;;8.69;88.87;99812.16;218075;1257;139579;-67
2023/04/07 16:54:14;;;;;;;9.70;6.80;;;;;;;8.60;88.79;99819.23;218040;1257;139562;-67
2023/04/07 16:59:19;;;;;;;11.90;8.10;;;;;;;8.45;88.71;99829.92;219090;1256;140005;-67
2023/04/07 17:04:22;;;;;;;18.40;10.70;;;;;;;8.33;88.69;99840.48;219076;1257;139937;-66
2023/04/07 17:09:27;;;;;;;13.30;10.30;;;;;;;8.29;88.91;99852.42;219196;1257;141012;-68
2023/04/07 17:14:32;;;;;;;8.60;5.80;;;;;;;8.27;88.89;99864.01;217641;1257;140813;-73
2023/04/07 17:19:36;;;;;;;13.10;6.70;;;;;;;8.10;88.40;99866.21;218434;1257;141692;-67
2023/04/07 17:24:39;;;;;;;7.80;5.60;;;;;;;7.94;88.18;99872.73;217539;1257;139970;-67
2023/04/07 17:29:43;;;;;;;7.50;5.10;;;;;;;7.76;87.86;99873.41;218810;1257;139386;-68
2023/04/07 17:34:48;;;;;;;6.40;4.40;;;;;;;7.55;87.99;99872.31;219053;1256;151378;-69
2023/04/07 17:39:51;;;;;;;5.90;5.00;;;;;;;7.37;87.92;99879.77;220513;1257;140401;-68
2023/04/07 17:44:55;;;;;;;9.20;6.00;;;;;;;7.28;88.24;99891.45;220385;1256;139879;-69
2023/04/07 17:49:59;;;;;;;11.20;6.80;;;;;;;7.27;88.04;99902.63;220371;1257;140142;-69
2023/04/07 17:55:07;;;;;;;15.20;6.80;;;;;;;7.27;88.25;99912.09;219149;1257;141105;-68
2023/04/07 18:00:14;;;;;;;16.40;10.30;;;;;;;7.34;88.54;99921.91;218876;1256;139625;-69
2023/04/07 18:05:21;;;;;;;13.40;9.10;;;;;;;7.38;88.46;99932.84;217602;1257;140300;-70
2023/04/07 18:10:26;;;;;;;17.90;10.60;;;;;;;7.41;88.10;99946.26;218170;1257;139975;-69
2023/04/07 18:15:31;;;;;;;16.20;8.80;;;;;;;7.42;88.27;99950.66;217481;1256;139553;-73
2023/04/07 18:20:36;;;;;;;27.40;11.50;;;;;;;7.41;88.10;99959.84;217871;1257;139595;-70
2023/04/07 18:25:41;;;;;;;11.50;8.00;;;;;;;7.38;88.01;99967.31;217968;1256;141550;-69
2023/04/07 18:30:47;;;;;;;11.00;8.10;;;;;;;7.33;87.96;99972.23;218307;1259;140018;-66
2023/04/07 18:35:52;;;;;;;17.30;9.80;;;;;;;7.28;88.00;99981.84;217855;1259;141161;-71
2023/04/07 18:41:00;;;;;;;17.40;9.80;;;;;;;7.25;87.97;99991.95;218353;1257;140177;-71
2023/04/07 18:46:07;;;;;;;16.70;10.80;;;;;;;7.20;87.76;99993.31;217807;1257;139722;-69
2023/04/07 18:51:11;;;;;;;13.10;9.60;;;;;;;7.14;87.73;99994.29;218180;1259;139582;-68
2023/04/07 18:56:19;;;;;;;15.60;11.20;;;;;;;7.06;87.78;100003.88;218276;1255;139981;-69
2023/04/07 19:01:27;;;;;;;19.30;11.20;;;;;;;7.01;87.80;100009.45;218011;1257;139975;-70
2023/04/07 19:06:31;;;;;;;13.30;8.60;;;;;;;6.95;87.82;100012.91;218690;1257;140573;-73
2023/04/07 19:11:35;;;;;;;31.50;18.40;;;;;;;6.89;87.78;100017.64;218046;1260;139783;-68
2023/04/07 19:16:40;;;;;;;34.00;13.90;;;;;;;6.82;87.34;100029.94;218379;1257;140875;-66
2023/04/07 19:21:44;;;;;;;28.50;12.20;;;;;;;6.71;87.22;100040.00;217420;1257;140040;-69
2023/04/07 19:26:50;;;;;;;21.90;13.30;;;;;;;6.61;86.92;100042.40;217457;1260;139994;-67
2023/04/07 19:31:56;;;;;;;21.20;12.70;;;;;;;6.51;86.95;100047.59;220431;1257;140669;-69
2023/04/07 19:37:01;;;;;;;19.10;12.00;;;;;;;6.41;87.04;100049.08;220458;1256;142058;-68
2023/04/07 19:42:05;;;;;;;15.90;10.70;;;;;;;6.36;86.82;100060.80;218539;1259;140232;-67
2023/04/07 19:47:12;;;;;;;47.50;21.10;;;;;;;6.36;87.28;100066.66;220594;1255;140124;-68
2023/04/07 19:52:16;;;;;;;22.70;12.70;;;;;;;6.32;87.11;100071.75;220451;1256;140082;-68
2023/04/07 19:57:22;;;;;;;21.90;12.50;;;;;;;6.30;86.57;100072.39;220397;1257;140595;-67
2023/04/07 20:02:26;;;;;;;21.10;12.90;;;;;;;6.30;87.06;100076.02;220378;1256;140896;-68
2023/04/07 20:07:33;;;;;;;17.20;11.60;;;;;;;6.30;87.13;100085.29;220416;1257;141364;-68
2023/04/07 20:12:38;;;;;;;26.80;18.50;;;;;;;6.30;86.79;100088.96;220362;1257;140892;-68
2023/04/07 20:17:44;;;;;;;29.40;18.70;;;;;;;6.31;87.03;100097.85;220288;1257;139666;-68
2023/04/07 20:22:48;;;;;;;25.30;16.60;;;;;;;6.31;87.08;100105.09;220621;1257;140603;-67
2023/04/07 20:27:52;;;;;;;18.20;14.30;;;;;;;6.29;86.92;100116.40;220384;1257;140856;-69
2023/04/07 20:38:20;;;;;;;29.30;17.90;;;;;;;6.35;86.99;100127.35;213872;1298;636211;-68
2023/04/07 20:43:24;;;;;;;19.70;15.70;;;;;;;6.26;86.90;100131.84;217374;1272;140050;-66
2023/04/07 20:48:28;;;;;;;21.40;15.30;;;;;;;6.12;86.71;100130.39;216356;1270;230486;-66
2023/04/07 20:53:32;;;;;;;18.80;13.10;;;;;;;5.99;86.93;100134.48;216936;1267;139347;-70
2023/04/07 20:58:36;;;;;;;15.60;10.80;;;;;;;5.82;86.60;100138.69;216726;1267;139524;-67
2023/04/07 21:03:41;;;;;;;18.10;10.80;;;;;;;5.61;86.46;100141.67;217444;1266;139517;-69
2023/04/07 21:08:45;;;;;;;18.40;12.20;;;;;;;5.42;86.71;100149.84;216960;1269;139847;-66
2023/04/07 21:13:49;;;;;;;18.60;11.10;;;;;;;5.27;86.59;100148.52;218894;1259;139865;-66
2023/04/07 21:18:53;;;;;;;16.10;9.50;;;;;;;5.20;86.79;100150.81;220021;1259;139629;-67
2023/04/07 21:23:56;;;;;;;12.10;8.60;;;;;;;5.13;86.40;100154.27;217862;1260;138954;-66
2023/04/07 21:29:00;;;;;;;11.80;9.80;;;;;;;5.00;86.24;100162.66;220066;1259;140393;-71
2023/04/07 21:34:04;;;;;;;23.90;12.70;;;;;;;4.85;86.15;100166.34;219822;1262;139633;-67
2023/04/07 21:39:07;;;;;;;21.60;14.00;;;;;;;4.74;86.12;100170.84;219876;1260;139645;-67
2023/04/07 21:44:11;;;;;;;12.70;10.30;;;;;;;4.63;86.32;100174.89;219046;1259;139524;-67
2023/04/07 21:49:21;;;;;;;18.80;11.40;;;;;;;4.55;86.23;100173.75;217551;1259;140003;-66
2023/04/07 21:54:25;;;;;;;19.90;10.00;;;;;;;4.44;86.33;100173.83;217219;1260;139382;-66
2023/04/07 21:59:34;;;;;;;16.70;10.70;;;;;;;4.35;86.37;100176.17;217627;1260;139288;-65
2023/04/07 22:04:37;;;;;;;21.20;11.70;;;;;;;4.27;86.23;100179.77;218052;1260;140017;-67
2023/04/07 22:09:41;;;;;;;17.30;11.30;;;;;;;4.18;86.27;100178.32;218043;1264;139862;-67
2023/04/07 22:14:44;;;;;;;19.20;12.60;;;;;;;4.12;86.36;100180.95;217669;1263;139341;-66
2023/04/07 22:19:48;;;;;;;21.20;12.60;;;;;;;4.09;86.42;100185.90;217198;1263;141976;-65
2023/04/07 22:24:52;;;;;;;13.80;9.40;;;;;;;4.02;86.30;100187.48;219095;1256;139912;-65
2023/04/07 22:29:56;;;;;;;18.70;10.80;;;;;;;3.96;86.39;100193.34;217784;1256;139651;-64
2023/04/07 22:35:01;;;;;;;13.90;10.30;;;;;;;3.92;86.53;100198.00;218022;1255;140204;-66
2023/04/07 22:40:05;;;;;;;19.30;11.60;;;;;;;3.90;86.79;100194.65;217845;1257;139892;-67
2023/04/07 22:45:10;;;;;;;16.40;11.30;;;;;;;3.91;87.05;100200.05;217861;1257;139516;-69
2023/04/07 22:50:14;;;;;;;21.20;11.40;;;;;;;3.93;87.08;100207.59;218121;1256;139622;-64
2023/04/07 22:55:19;;;;;;;20.10;12.50;;;;;;;3.97;87.24;100211.29;218000;1259;139202;-65
2023/04/07 23:00:23;;;;;;;17.60;11.80;;;;;;;4.02;87.57;100217.33;219376;1257;139947;-66
2023/04/07 23:05:26;;;;;;;23.60;14.50;;;;;;;4.09;87.46;100221.67;219373;1256;139342;-67
2023/04/07 23:10:31;;;;;;;23.50;14.10;;;;;;;4.15;87.37;100230.59;220449;1256;140009;-67
2023/04/07 23:15:37;;;;;;;20.10;15.20;;;;;;;4.21;87.51;100229.42;219456;1257;140359;-64
2023/04/07 23:20:41;;;;;;;19.70;13.40;;;;;;;4.26;87.50;100230.71;218940;1256;139801;-66